Time;durP1;ratioP1;P1;durP2;ratioP2;P2;SDS_P1;SDS_P2;PMS_P1;PMS_P2;Temp;Humidity;BMP_temperature;BMP_pressure;BME280_temperature;BME280_humidity;BME280_pressure;Samples;Min_cycle;Max_cycle;Signal;HPM_P1;HPM_P2
2022/09/06 00:00:12;;;;;;;2.53;1.60;;;22.90;89.20;;;;;;5066960;28;20013;-37
2022/09/06 00:02:39;;;;;;;3.05;1.88;;;22.80;89.10;;;;;;5066206;28;20530;-35
2022/09/06 00:05:06;;;;;;;3.85;2.20;;;22.80;89.20;;;;;;5065606;28;20037;-37
2022/09/06 00:07:31;;;;;;;2.65;1.75;;;22.80;89.30;;;;;;5065647;28;20755;-37
2022/09/06 00:09:57;;;;;;;4.22;2.38;;;22.80;89.70;;;;;;5066084;28;20484;-36
2022/09/06 00:12:23;;;;;;;2.75;2.08;;;22.70;89.60;;;;;;5066413;28;20379;-36
2022/09/06 00:14:49;;;;;;;2.20;1.70;;;22.70;89.80;;;;;;5065868;28;20024;-35
2022/09/06 00:17:14;;;;;;;2.15;1.95;;;22.70;89.90;;;;;;5065735;28;20032;-36
2022/09/06 00:19:40;;;;;;;2.72;1.88;;;22.70;90.00;;;;;;5066193;28;20021;-37
2022/09/06 00:22:05;;;;;;;2.15;1.83;;;22.70;90.00;;;;;;5066187;28;20021;-36
2022/09/06 00:24:31;;;;;;;2.65;1.83;;;22.70;90.00;;;;;;5065545;28;20039;-36
2022/09/06 00:26:56;;;;;;;1.88;1.77;;;22.60;90.10;;;;;;5066588;28;20024;-36
2022/09/06 00:29:22;;;;;;;3.25;1.70;;;22.60;90.20;;;;;;5066305;28;20025;-37
2022/09/06 00:31:47;;;;;;;2.50;1.92;;;22.60;90.20;;;;;;5065156;28;20028;-36
2022/09/06 00:34:13;;;;;;;3.60;1.92;;;22.60;90.40;;;;;;5066374;28;20837;-37
2022/09/06 00:36:38;;;;;;;4.05;1.77;;;22.60;90.30;;;;;;5066065;28;20120;-35
2022/09/06 00:39:04;;;;;;;2.50;1.95;;;22.60;90.20;;;;;;5064746;28;20028;-36
2022/09/06 00:41:30;;;;;;;1.38;1.27;;;22.60;90.40;;;;;;5065924;28;20028;-37
2022/09/06 00:43:55;;;;;;;2.50;1.80;;;22.60;90.40;;;;;;5064922;28;20074;-39
2022/09/06 00:46:25;;;;;;;1.95;1.38;;;22.60;90.60;;;;;;5065217;28;20460;-36
2022/09/06 00:48:55;;;;;;;2.80;1.50;;;22.50;90.60;;;;;;5064836;28;20380;-37
2022/09/06 00:51:23;;;;;;;2.83;1.67;;;22.40;91.00;;;;;;5065339;28;20574;-36
2022/09/06 00:53:49;;;;;;;1.80;1.55;;;22.40;90.90;;;;;;5065303;28;20024;-35
2022/09/06 00:56:15;;;;;;;2.25;1.88;;;22.30;91.10;;;;;;5064989;28;20025;-36
2022/09/06 00:58:40;;;;;;;1.75;1.55;;;22.20;91.20;;;;;;5065491;28;20363;-37
2022/09/06 01:01:06;;;;;;;2.00;1.48;;;22.20;91.40;;;;;;5064375;28;20032;-35
2022/09/06 01:03:33;;;;;;;2.55;1.70;;;22.20;91.60;;;;;;5047551;28;20028;-36
2022/09/06 01:06:13;;;;;;;3.83;1.77;;;22.20;91.70;;;;;;5065234;28;20025;-38
2022/09/06 01:08:53;;;;;;;2.03;1.83;;;22.10;92.00;;;;;;5064075;28;20031;-35
2022/09/06 01:11:27;;;;;;;3.85;1.98;;;22.10;92.00;;;;;;5065584;28;20024;-36
2022/09/06 01:13:58;;;;;;;2.40;1.85;;;22.10;92.40;;;;;;5064485;28;20034;-36
2022/09/06 01:16:44;;;;;;;3.42;1.70;;;22.00;92.50;;;;;;5065809;28;20028;-35
2022/09/06 01:19:19;;;;;;;3.17;1.95;;;22.00;92.90;;;;;;5045759;28;20025;-37
2022/09/06 01:22:12;;;;;;;3.28;2.00;;;22.00;93.10;;;;;;5060192;28;20028;-37
2022/09/06 01:25:23;;;;;;;2.03;1.70;;;21.90;93.30;;;;;;5045859;28;20606;-36
2022/09/06 01:28:12;;;;;;;2.45;2.15;;;21.90;93.40;;;;;;5053490;28;20074;-36
2022/09/06 01:30:47;;;;;;;3.33;2.05;;;21.90;93.70;;;;;;5064705;28;20058;-35
2022/09/06 01:33:21;;;;;;;2.85;1.95;;;21.70;93.90;;;;;;5061269;28;20419;-42
2022/09/06 01:36:18;;;;;;;2.22;2.00;;;21.60;94.10;;;;;;5047679;28;20201;-36
2022/09/06 01:38:44;;;;;;;2.65;1.92;;;21.60;94.30;;;;;;5051791;28;20032;-39
2022/09/06 01:41:09;;;;;;;2.83;2.20;;;21.50;94.30;;;;;;5065619;28;20078;-36
2022/09/06 01:43:39;;;;;;;2.55;2.00;;;21.50;94.50;;;;;;5064276;28;20502;-37
2022/09/06 01:46:18;;;;;;;2.65;2.00;;;21.50;94.70;;;;;;5065199;28;20029;-35
2022/09/06 01:49:02;;;;;;;2.17;1.98;;;21.40;94.80;;;;;;5064456;28;20028;-36
2022/09/06 01:51:34;;;;;;;5.50;2.80;;;21.40;94.90;;;;;;5064829;28;20097;-37
2022/09/06 01:54:28;;;;;;;2.55;2.13;;;21.40;95.20;;;;;;5054598;28;20453;-36
2022/09/06 01:57:12;;;;;;;4.38;2.65;;;21.40;95.90;;;;;;5064382;28;20032;-36
2022/09/06 01:59:53;;;;;;;2.65;2.45;;;21.20;96.40;;;;;;5064477;28;20036;-37
2022/09/06 02:02:57;;;;;;;3.78;2.72;;;21.10;96.90;;;;;;5068555;28;20448;-36
2022/09/06 02:05:45;;;;;;;2.33;2.10;;;20.90;97.20;;;;;;5069599;28;20128;-36
2022/09/06 02:08:28;;;;;;;3.10;2.70;;;20.90;97.30;;;;;;5069186;28;20024;-35
2022/09/06 02:11:06;;;;;;;3.05;2.30;;;20.90;97.40;;;;;;5047866;28;20515;-38
2022/09/06 02:14:03;;;;;;;2.00;1.80;;;21.00;97.50;;;;;;5065057;28;20070;-35
2022/09/06 02:16:34;;;;;;;2.45;2.25;;;21.00;97.50;;;;;;5068809;28;20029;-36
2022/09/06 02:19:44;;;;;;;2.75;2.08;;;21.00;97.40;;;;;;5067888;28;20021;-37
2022/09/06 02:22:13;;;;;;;3.03;2.13;;;21.10;97.50;;;;;;5025502;28;20036;-37
2022/09/06 02:24:42;;;;;;;2.88;2.05;;;21.10;97.70;;;;;;5024645;28;20148;-37
2022/09/06 02:27:09;;;;;;;2.30;2.10;;;21.00;97.70;;;;;;5046804;28;20032;-36
2022/09/06 02:29:35;;;;;;;2.15;1.95;;;21.00;97.70;;;;;;5068339;28;20028;-35
2022/09/06 02:32:11;;;;;;;1.98;1.80;;;21.00;97.90;;;;;;5067397;28;20480;-37
2022/09/06 02:34:42;;;;;;;4.45;2.03;;;21.00;98.00;;;;;;5067361;28;20028;-36
2022/09/06 02:37:10;;;;;;;2.67;1.70;;;21.00;98.10;;;;;;5068556;28;20104;-37
2022/09/06 02:39:37;;;;;;;2.92;1.88;;;21.00;98.20;;;;;;5067486;28;20035;-37
2022/09/06 02:42:03;;;;;;;2.00;1.90;;;21.00;98.30;;;;;;5068383;28;20047;-35
2022/09/06 02:44:29;;;;;;;2.83;2.33;;;21.00;98.40;;;;;;5067779;28;20045;-38
2022/09/06 02:46:54;;;;;;;2.55;2.10;;;20.90;98.60;;;;;;5067059;28;20024;-37
2022/09/06 02:49:20;;;;;;;3.05;2.53;;;20.90;98.70;;;;;;5067998;28;20026;-35
2022/09/06 02:51:45;;;;;;;2.97;2.60;;;20.90;98.80;;;;;;5067284;28;20107;-36
2022/09/06 02:54:11;;;;;;;3.55;2.70;;;20.80;99.00;;;;;;5066859;28;20048;-36
2022/09/06 02:56:37;;;;;;;3.15;2.80;;;20.80;99.20;;;;;;5066441;28;20139;-37
2022/09/06 02:59:05;;;;;;;3.28;2.65;;;20.80;99.50;;;;;;5065534;28;20101;-37
2022/09/06 03:01:32;;;;;;;3.58;2.90;;;20.80;99.70;;;;;;5066767;28;20017;-39
2022/09/06 03:03:57;;;;;;;3.28;2.97;;;20.90;99.90;;;;;;5066808;28;20052;-36
2022/09/06 03:06:23;;;;;;;3.05;2.75;;;20.90;99.90;;;;;;5066195;28;20345;-37
2022/09/06 03:08:49;;;;;;;2.85;2.60;;;20.90;99.90;;;;;;5066469;28;20032;-37
2022/09/06 03:11:14;;;;;;;3.30;3.00;;;20.90;99.90;;;;;;5066339;28;20025;-37
2022/09/06 03:13:40;;;;;;;2.70;2.50;;;20.90;99.90;;;;;;5065795;28;20032;-39
2022/09/06 03:16:05;;;;;;;3.67;2.67;;;20.90;99.90;;;;;;5067042;28;20024;-36
2022/09/06 03:18:31;;;;;;;3.03;2.72;;;20.90;99.90;;;;;;5066255;28;20578;-37
2022/09/06 03:20:58;;;;;;;3.28;2.92;;;20.90;99.90;;;;;;5065026;28;20558;-37
2022/09/06 03:23:26;;;;;;;3.25;2.90;;;20.90;99.90;;;;;;5066214;28;20490;-37
2022/09/06 03:25:52;;;;;;;3.40;2.80;;;20.80;99.90;;;;;;5065947;28;20492;-37
2022/09/06 03:28:19;;;;;;;2.40;2.20;;;20.70;99.90;;;;;;5066015;28;20032;-36
2022/09/06 03:30:46;;;;;;;3.10;2.78;;;20.70;99.90;;;;;;5065579;28;20039;-37
2022/09/06 03:33:12;;;;;;;2.80;2.53;;;20.70;99.90;;;;;;5066088;28;20017;-36
2022/09/06 03:35:38;;;;;;;2.40;2.20;;;20.70;99.90;;;;;;5064536;28;20036;-36
2022/09/06 03:38:04;;;;;;;3.65;2.67;;;20.70;99.90;;;;;;5066185;28;20519;-36
2022/09/06 03:40:29;;;;;;;2.65;2.45;;;20.70;99.90;;;;;;5065524;28;20040;-35
2022/09/06 03:42:55;;;;;;;3.80;2.70;;;20.70;99.90;;;;;;5065193;28;20460;-36
2022/09/06 03:45:21;;;;;;;2.50;2.30;;;20.80;99.90;;;;;;5066364;28;20024;-35
2022/09/06 03:47:46;;;;;;;2.95;2.65;;;20.80;99.90;;;;;;5065303;28;20082;-37
2022/09/06 03:50:12;;;;;;;4.22;2.47;;;20.80;99.90;;;;;;5065220;28;20024;-37
2022/09/06 03:52:38;;;;;;;3.05;2.50;;;20.80;99.90;;;;;;5066731;28;20044;-36
2022/09/06 03:55:04;;;;;;;2.50;2.30;;;20.80;99.90;;;;;;5030281;28;1019273;-35
2022/09/06 03:57:30;;;;;;;3.78;2.65;;;20.90;99.90;;;;;;5065677;28;20666;-36
2022/09/06 03:59:55;;;;;;;3.08;2.50;;;20.90;99.90;;;;;;5066556;28;20078;-36
2022/09/06 04:02:21;;;;;;;2.90;2.67;;;20.90;99.90;;;;;;5065818;28;20032;-37
2022/09/06 04:04:46;;;;;;;3.58;2.35;;;20.90;99.90;;;;;;5066030;28;20086;-37
2022/09/06 04:07:12;;;;;;;3.08;2.75;;;20.90;99.90;;;;;;5067282;28;20013;-37
2022/09/06 04:09:38;;;;;;;3.20;2.47;;;20.80;99.90;;;;;;5065974;28;20074;-38
2022/09/06 04:12:03;;;;;;;3.13;2.80;;;20.80;99.90;;;;;;5066118;28;20460;-38
2022/09/06 04:14:29;;;;;;;3.08;2.80;;;20.70;99.90;;;;;;5066796;28;20124;-38
2022/09/06 04:16:55;;;;;;;3.05;2.75;;;20.70;99.90;;;;;;5065533;28;20111;-36
2022/09/06 04:19:20;;;;;;;4.10;3.03;;;20.70;99.90;;;;;;5066932;28;20648;-36
2022/09/06 04:21:46;;;;;;;3.72;3.42;;;20.70;99.90;;;;;;5066000;28;20027;-36
2022/09/06 04:24:11;;;;;;;4.03;3.63;;;20.70;99.90;;;;;;5064400;28;20068;-36
2022/09/06 04:26:37;;;;;;;3.90;3.50;;;20.70;99.90;;;;;;5066237;28;20099;-36
2022/09/06 04:29:03;;;;;;;4.20;3.80;;;20.70;99.90;;;;;;5065704;28;20428;-35
2022/09/06 04:31:28;;;;;;;4.18;3.88;;;20.80;99.90;;;;;;5065475;28;20028;-37
2022/09/06 04:33:54;;;;;;;4.03;3.72;;;20.80;99.90;;;;;;5065559;28;20070;-36
2022/09/06 04:36:19;;;;;;;4.20;3.85;;;20.90;99.90;;;;;;5065612;28;20513;-36
2022/09/06 04:38:45;;;;;;;4.28;3.53;;;20.90;99.90;;;;;;5064193;28;20086;-37
2022/09/06 04:41:14;;;;;;;4.28;3.88;;;20.90;99.90;;;;;;5066545;28;20060;-37
2022/09/06 04:43:40;;;;;;;4.50;4.10;;;20.90;99.90;;;;;;5065322;28;20024;-35
2022/09/06 04:46:14;;;;;;;4.25;3.85;;;20.90;99.90;;;;;;5065170;28;20024;-36
2022/09/06 04:48:39;;;;;;;4.70;3.60;;;20.90;99.90;;;;;;5065772;28;20032;-36
2022/09/06 04:51:05;;;;;;;4.43;4.03;;;20.90;99.90;;;;;;5065506;28;20055;-36
2022/09/06 04:53:30;;;;;;;4.50;3.88;;;20.90;99.90;;;;;;5064424;28;20387;-35
2022/09/06 04:55:57;;;;;;;4.10;3.45;;;20.90;99.90;;;;;;5065517;28;20083;-36
2022/09/06 04:58:22;;;;;;;4.18;3.72;;;20.90;99.90;;;;;;5066111;28;20114;-37
2022/09/06 05:00:48;;;;;;;4.38;3.88;;;20.90;99.90;;;;;;5064145;28;20059;-36
2022/09/06 05:03:13;;;;;;;4.03;3.70;;;20.80;99.90;;;;;;5065148;28;20028;-36
2022/09/06 05:05:39;;;;;;;3.70;3.40;;;20.90;99.90;;;;;;5065047;28;20027;-36
2022/09/06 05:08:05;;;;;;;3.90;3.60;;;20.90;99.90;;;;;;5064876;28;20025;-36
2022/09/06 05:10:30;;;;;;;4.30;3.97;;;20.80;99.90;;;;;;5065306;28;20035;-36
2022/09/06 05:12:56;;;;;;;4.70;3.78;;;20.80;99.90;;;;;;5064430;28;20027;-37
2022/09/06 05:15:22;;;;;;;4.40;4.00;;;20.70;99.90;;;;;;5065106;28;20017;-36
2022/09/06 05:17:48;;;;;;;4.13;3.75;;;20.70;99.90;;;;;;5064313;28;20384;-37
2022/09/06 05:20:14;;;;;;;4.28;3.95;;;20.70;99.90;;;;;;5064667;28;20017;-36
2022/09/06 05:22:40;;;;;;;5.65;4.07;;;20.70;99.90;;;;;;5065064;28;20071;-36
2022/09/06 05:25:07;;;;;;;5.18;3.30;;;20.70;99.90;;;;;;5064484;28;20562;-35
2022/09/06 05:27:32;;;;;;;6.13;4.50;;;20.70;99.90;;;;;;5063949;28;20468;-36
2022/09/06 05:29:58;;;;;;;4.20;3.80;;;20.70;99.90;;;;;;5065534;28;20036;-35
2022/09/06 05:32:23;;;;;;;4.45;4.03;;;20.60;99.90;;;;;;5064737;28;20103;-36
2022/09/06 05:34:49;;;;;;;6.18;4.60;;;20.60;99.90;;;;;;5063676;28;20472;-37
2022/09/06 05:37:14;;;;;;;5.38;4.22;;;20.50;99.90;;;;;;5065103;28;20047;-36
2022/09/06 05:39:41;;;;;;;4.38;3.97;;;20.50;99.90;;;;;;5071428;28;20032;-37
2022/09/06 05:42:06;;;;;;;3.97;3.63;;;20.50;99.90;;;;;;5064224;28;20024;-35
2022/09/06 05:44:36;;;;;;;4.55;3.85;;;20.50;99.90;;;;;;5062716;28;20488;-37
2022/09/06 05:47:02;;;;;;;4.80;4.30;;;20.40;99.90;;;;;;5061361;28;20117;-37
2022/09/06 05:49:29;;;;;;;4.90;3.30;;;20.40;99.90;;;;;;5062674;28;20029;-37
2022/09/06 05:51:55;;;;;;;4.55;4.00;;;20.40;99.90;;;;;;5063866;28;20036;-36
2022/09/06 05:54:20;;;;;;;4.43;4.03;;;20.30;99.90;;;;;;5063809;28;20047;-36
2022/09/06 05:56:46;;;;;;;5.00;3.70;;;20.40;99.90;;;;;;5062760;28;20575;-38
2022/09/06 05:59:12;;;;;;;5.38;4.43;;;20.40;99.90;;;;;;5064211;28;20110;-37
2022/09/06 06:01:46;;;;;;;7.50;4.43;;;20.40;99.90;;;;;;5063118;28;20024;-36
2022/09/06 06:04:12;;;;;;;4.50;4.10;;;20.40;99.90;;;;;;5064234;28;20119;-37
2022/09/06 06:06:37;;;;;;;5.00;4.50;;;20.40;99.90;;;;;;5063745;28;20024;-36
2022/09/06 06:09:04;;;;;;;5.40;4.38;;;20.40;99.90;;;;;;5063190;28;20333;-38
2022/09/06 06:11:30;;;;;;;3.72;3.42;;;20.40;99.90;;;;;;5063210;28;20025;-37
2022/09/06 06:13:57;;;;;;;4.75;4.25;;;20.30;99.90;;;;;;5063200;28;20035;-37
2022/09/06 06:16:24;;;;;;;5.18;4.68;;;20.20;99.90;;;;;;5063399;28;20021;-37
2022/09/06 06:18:50;;;;;;;5.55;5.05;;;20.20;99.90;;;;;;5064005;28;20035;-36
2022/09/06 06:21:21;;;;;;;5.57;4.57;;;20.20;99.90;;;;;;5063317;28;20021;-36
2022/09/06 06:23:50;;;;;;;6.47;5.57;;;20.10;99.90;;;;;;5062273;28;20045;-37
2022/09/06 06:26:15;;;;;;;5.60;5.10;;;20.10;99.90;;;;;;5063802;28;20027;-36
2022/09/06 06:28:41;;;;;;;6.72;5.00;;;20.10;99.90;;;;;;5063789;28;20024;-37
2022/09/06 06:31:09;;;;;;;6.40;5.13;;;20.10;99.90;;;;;;5062543;28;20521;-38
2022/09/06 06:33:37;;;;;;;6.28;5.68;;;20.10;99.90;;;;;;5063920;28;20051;-37
2022/09/06 06:36:23;;;;;;;6.78;6.18;;;20.10;99.90;;;;;;5063242;28;20013;-36
2022/09/06 06:38:51;;;;;;;5.88;5.38;;;20.10;99.90;;;;;;5062371;28;20361;-36
2022/09/06 06:41:18;;;;;;;5.70;5.18;;;20.10;99.90;;;;;;5063450;28;20028;-37
2022/09/06 06:43:44;;;;;;;4.95;4.47;;;20.10;99.90;;;;;;5062794;28;20040;-37
2022/09/06 06:46:11;;;;;;;5.40;4.90;;;20.10;99.90;;;;;;5062661;28;20017;-37
2022/09/06 06:48:40;;;;;;;6.07;5.07;;;20.10;99.90;;;;;;5066612;28;20489;-36
2022/09/06 06:51:10;;;;;;;5.65;5.15;;;20.10;99.90;;;;;;5066514;28;20465;-37
2022/09/06 06:53:36;;;;;;;4.18;3.88;;;20.20;99.90;;;;;;5066894;28;20054;-36
2022/09/06 06:56:13;;;;;;;6.43;5.18;;;20.20;99.90;;;;;;5067393;28;20041;-37
2022/09/06 06:58:38;;;;;;;4.40;4.10;;;20.20;99.90;;;;;;5066760;28;20021;-36
2022/09/06 07:01:04;;;;;;;5.57;5.00;;;20.20;99.90;;;;;;5067872;28;20109;-36
2022/09/06 07:03:29;;;;;;;5.07;4.60;;;20.30;99.90;;;;;;5066447;28;20025;-36
2022/09/06 07:05:55;;;;;;;5.68;4.88;;;20.30;99.90;;;;;;5066684;28;20020;-35
2022/09/06 07:08:20;;;;;;;5.50;5.00;;;20.40;99.90;;;;;;5067328;28;20033;-36
2022/09/06 07:10:46;;;;;;;4.88;4.30;;;20.40;99.90;;;;;;5067314;28;20044;-37
2022/09/06 07:13:12;;;;;;;5.10;4.70;;;20.40;99.90;;;;;;5066337;28;20059;-37
2022/09/06 07:15:38;;;;;;;6.13;5.30;;;20.40;99.90;;;;;;5066708;28;20035;-37
2022/09/06 07:18:03;;;;;;;5.32;4.90;;;20.40;99.90;;;;;;5067101;28;20028;-37
2022/09/06 07:20:29;;;;;;;4.55;4.18;;;20.50;99.90;;;;;;5066366;28;20570;-36
2022/09/06 07:22:59;;;;;;;4.10;3.80;;;20.50;99.90;;;;;;5066431;28;20335;-38
2022/09/06 07:25:25;;;;;;;5.03;4.57;;;20.50;99.90;;;;;;5067496;28;20052;-37
2022/09/06 07:28:05;;;;;;;4.88;4.47;;;20.60;99.90;;;;;;5066449;28;20049;-37
2022/09/06 07:30:32;;;;;;;5.45;4.95;;;20.60;99.90;;;;;;5067168;28;20032;-36
2022/09/06 07:32:59;;;;;;;5.13;4.53;;;20.60;99.90;;;;;;5066749;28;20016;-38
2022/09/06 07:35:25;;;;;;;4.72;4.28;;;20.70;99.90;;;;;;5065319;28;20036;-37
2022/09/06 07:37:55;;;;;;;5.20;4.70;;;20.70;99.90;;;;;;5067096;28;20454;-38
2022/09/06 07:40:21;;;;;;;4.22;3.50;;;20.80;99.90;;;;;;5066132;28;20027;-36
2022/09/06 07:42:47;;;;;;;4.20;3.80;;;20.90;99.90;;;;;;5066090;28;20033;-38
2022/09/06 07:45:12;;;;;;;4.15;3.85;;;20.90;99.90;;;;;;5067073;28;20036;-36
2022/09/06 07:47:38;;;;;;;3.83;3.53;;;20.90;99.90;;;;;;5065949;28;20029;-44
2022/09/06 07:50:04;;;;;;;3.70;3.20;;;21.00;99.90;;;;;;5066148;28;20027;-36
2022/09/06 07:52:30;;;;;;;3.47;3.17;;;21.00;99.90;;;;;;5066323;28;20060;-37
2022/09/06 07:54:55;;;;;;;3.22;3.00;;;21.10;99.90;;;;;;5065282;28;20076;-37
2022/09/06 07:57:22;;;;;;;3.78;3.47;;;21.10;99.90;;;;;;5066034;28;20025;-37
2022/09/06 07:59:47;;;;;;;3.80;3.15;;;21.10;99.90;;;;;;5064517;28;20025;-38
2022/09/06 08:02:14;;;;;;;3.35;3.05;;;21.20;99.90;;;;;;5065682;28;20382;-37
2022/09/06 08:04:40;;;;;;;3.63;3.33;;;21.30;99.90;;;;;;5065081;28;20032;-36
2022/09/06 08:07:06;;;;;;;3.70;3.40;;;21.30;99.90;;;;;;5065660;28;20020;-36
2022/09/06 08:09:31;;;;;;;3.28;2.97;;;21.40;99.90;;;;;;5065068;28;20078;-36
2022/09/06 08:11:57;;;;;;;4.57;3.42;;;21.40;99.90;;;;;;5065886;28;20028;-37
2022/09/06 08:14:23;;;;;;;3.35;3.05;;;21.50;99.90;;;;;;5065834;28;20024;-36
2022/09/06 08:16:49;;;;;;;4.10;3.80;;;21.60;99.90;;;;;;5065105;28;20032;-36
2022/09/06 08:19:15;;;;;;;3.83;3.42;;;21.70;99.90;;;;;;5066165;28;20017;-38
2022/09/06 08:21:40;;;;;;;6.70;3.72;;;21.70;99.90;;;;;;5066155;28;20024;-36
2022/09/06 08:24:08;;;;;;;3.80;3.50;;;21.80;99.90;;;;;;5064676;28;20032;-36
2022/09/06 08:26:38;;;;;;;2.70;2.45;;;21.80;99.90;;;;;;5065752;28;20048;-36
2022/09/06 08:29:06;;;;;;;3.75;3.00;;;21.90;99.90;;;;;;5065213;28;20129;-36
2022/09/06 08:31:34;;;;;;;3.47;2.92;;;22.00;99.90;;;;;;5065227;28;20016;-37
2022/09/06 08:34:00;;;;;;;3.40;2.67;;;22.00;99.90;;;;;;5065251;28;20037;-37
2022/09/06 08:36:28;;;;;;;2.85;2.60;;;22.10;99.90;;;;;;5065269;28;20499;-36
2022/09/06 08:38:58;;;;;;;3.45;2.42;;;22.10;99.90;;;;;;5065139;28;20039;-37
2022/09/06 08:41:55;;;;;;;4.75;2.88;;;22.20;99.90;;;;;;5065614;28;20040;-37
2022/09/06 08:44:22;;;;;;;2.65;2.17;;;22.30;99.90;;;;;;5043247;28;20163;-38
2022/09/06 08:46:56;;;;;;;2.65;2.25;;;22.40;99.90;;;;;;5062471;28;20478;-36
2022/09/06 08:49:24;;;;;;;3.10;2.70;;;22.40;99.90;;;;;;5063886;28;20063;-35
2022/09/06 08:52:20;;;;;;;4.55;3.25;;;22.50;99.90;;;;;;5064483;28;20090;-36
2022/09/06 08:55:11;;;;;;;4.15;2.92;;;22.60;99.90;;;;;;5044188;28;20088;-36
2022/09/06 08:58:20;;;;;;;3.25;2.65;;;22.60;99.70;;;;;;5063868;28;20029;-37
2022/09/06 09:00:51;;;;;;;3.17;2.88;;;22.70;99.60;;;;;;5064677;28;20040;-38
2022/09/06 09:03:24;;;;;;;3.00;2.70;;;22.80;99.40;;;;;;5054158;28;20295;-35
2022/09/06 09:05:52;;;;;;;3.38;2.60;;;22.90;99.50;;;;;;5064577;28;20039;-36
2022/09/06 09:08:45;;;;;;;3.03;2.55;;;22.90;99.20;;;;;;5065356;28;20066;-37
2022/09/06 09:11:20;;;;;;;;;;;22.90;99.10;;;;;;5065230;28;20533;-36
2022/09/06 09:13:46;;;;;;;2.92;2.33;;;23.00;98.90;;;;;;5054413;28;20226;-36
2022/09/06 09:16:13;;;;;;;4.38;2.17;;;23.00;98.80;;;;;;5064780;28;20060;-35
2022/09/06 09:18:46;;;;;;;3.15;2.40;;;23.10;98.70;;;;;;5064019;28;20086;-36
2022/09/06 09:21:21;;;;;;;3.88;2.40;;;23.20;98.40;;;;;;5064914;28;20032;-36
2022/09/06 09:23:52;;;;;;;2.22;1.90;;;23.30;98.20;;;;;;5064084;28;20032;-36
2022/09/06 09:26:19;;;;;;;3.30;2.05;;;23.40;98.10;;;;;;5064527;28;20021;-37
2022/09/06 09:29:03;;;;;;;2.60;1.70;;;23.40;97.90;;;;;;5064090;28;20028;-37
2022/09/06 09:31:39;;;;;;;2.20;1.98;;;23.50;97.80;;;;;;5064603;28;20063;-36
2022/09/06 09:34:10;;;;;;;1.90;1.80;;;23.60;97.50;;;;;;5064145;28;20020;-36
2022/09/06 09:36:36;;;;;;;1.75;1.65;;;23.70;97.30;;;;;;5064668;28;20017;-38
2022/09/06 09:39:08;;;;;;;2.08;1.88;;;23.70;97.20;;;;;;5064500;28;20102;-37
2022/09/06 09:41:37;;;;;;;2.25;1.95;;;23.70;97.10;;;;;;5064082;28;20096;-38
2022/09/06 09:44:26;;;;;;;2.35;1.80;;;23.80;96.90;;;;;;5062861;28;20058;-37
2022/09/06 09:46:52;;;;;;;1.60;1.50;;;23.80;96.80;;;;;;5064194;28;20100;-38
2022/09/06 09:49:21;;;;;;;2.17;1.73;;;23.90;96.70;;;;;;5064741;28;20140;-37
2022/09/06 09:52:10;;;;;;;3.25;1.95;;;23.90;96.60;;;;;;5064594;28;20028;-37
2022/09/06 09:54:39;;;;;;;1.90;1.60;;;23.90;96.40;;;;;;5059457;28;20045;-37
2022/09/06 09:57:10;;;;;;;2.22;1.92;;;24.00;96.20;;;;;;5064785;28;20033;-37
2022/09/06 09:59:43;;;;;;;2.53;1.70;;;24.10;96.20;;;;;;5064244;28;20020;-37
2022/09/06 10:02:24;;;;;;;1.70;1.60;;;24.10;95.90;;;;;;5064259;28;20071;-36
2022/09/06 10:04:57;;;;;;;2.20;1.80;;;24.20;95.60;;;;;;5063598;28;20040;-37
2022/09/06 10:07:24;;;;;;;1.88;1.70;;;24.30;95.10;;;;;;5064710;28;20067;-37
2022/09/06 10:10:00;;;;;;;2.30;1.88;;;24.40;95.00;;;;;;5063123;28;20438;-38
2022/09/06 10:12:37;;;;;;;2.20;1.40;;;24.50;94.80;;;;;;5064637;28;20476;-38
2022/09/06 10:15:05;;;;;;;1.83;1.50;;;24.50;94.70;;;;;;5063215;28;20036;-35
2022/09/06 10:17:37;;;;;;;3.50;1.92;;;24.60;94.70;;;;;;5064284;28;20541;-35
2022/09/06 10:20:11;;;;;;;2.10;1.42;;;24.60;94.60;;;;;;5064005;28;20033;-37
2022/09/06 10:22:50;;;;;;;1.40;1.30;;;24.70;94.50;;;;;;5065693;28;20036;-36
2022/09/06 10:25:44;;;;;;;2.20;2.00;;;24.70;94.20;;;;;;5067582;28;20044;-36
2022/09/06 10:28:40;;;;;;;2.55;1.55;;;24.80;93.80;;;;;;5068638;28;20027;-36
2022/09/06 10:31:31;;;;;;;2.15;1.95;;;24.80;93.70;;;;;;5066326;28;20028;-37
2022/09/06 10:34:21;;;;;;;2.67;2.30;;;24.80;93.40;;;;;;5068036;28;20099;-36
2022/09/06 10:36:55;;;;;;;1.75;1.65;;;24.90;93.30;;;;;;5058982;28;20487;-35
2022/09/06 10:39:53;;;;;;;2.25;1.40;;;25.00;93.00;;;;;;5068367;28;20101;-36
2022/09/06 10:42:42;;;;;;;1.58;1.48;;;25.00;93.00;;;;;;5068412;28;20073;-38
2022/09/06 10:45:29;;;;;;;1.55;1.45;;;25.10;92.90;;;;;;5066594;28;20028;-36
2022/09/06 10:48:03;;;;;;;1.38;1.27;;;25.10;92.90;;;;;;5068143;28;20083;-36
2022/09/06 10:50:43;;;;;;;2.17;1.90;;;25.20;92.60;;;;;;5066705;28;20032;-38
2022/09/06 10:53:35;;;;;;;1.85;1.65;;;25.20;92.50;;;;;;5067432;28;20077;-37
2022/09/06 10:56:03;;;;;;;1.92;1.60;;;25.20;92.10;;;;;;5067438;28;20044;-37
2022/09/06 10:58:35;;;;;;;1.67;1.50;;;25.20;91.80;;;;;;5067291;28;20119;-37
2022/09/06 11:01:01;;;;;;;3.35;1.55;;;25.30;91.70;;;;;;5067272;28;20171;-36
2022/09/06 11:03:41;;;;;;;5.50;1.50;;;25.40;91.60;;;;;;5067423;28;20020;-36
2022/09/06 11:06:08;;;;;;;1.65;1.30;;;25.40;91.50;;;;;;5066273;28;20036;-36
2022/09/06 11:08:46;;;;;;;2.70;1.35;;;25.50;91.40;;;;;;5067657;28;20361;-36
2022/09/06 11:11:38;;;;;;;2.13;1.90;;;25.60;91.30;;;;;;5067805;28;20024;-36
2022/09/06 11:14:08;;;;;;;1.80;1.33;;;25.60;91.00;;;;;;5047999;28;20020;-37
2022/09/06 11:16:40;;;;;;;2.20;1.67;;;25.70;91.10;;;;;;5062543;28;20488;-38
2022/09/06 11:19:39;;;;;;;2.30;2.03;;;25.70;91.10;;;;;;5046514;28;20029;-36
2022/09/06 11:22:39;;;;;;;1.80;1.70;;;25.70;90.90;;;;;;5062000;28;20194;-36
2022/09/06 11:25:19;;;;;;;2.03;1.50;;;25.70;91.00;;;;;;5066857;28;20543;-37
2022/09/06 11:27:52;;;;;;;1.67;1.55;;;25.70;91.00;;;;;;5063754;28;20032;-37
2022/09/06 11:30:18;;;;;;;2.10;1.30;;;25.70;90.90;;;;;;5067685;28;20028;-35
2022/09/06 11:32:51;;;;;;;2.00;1.38;;;25.80;90.80;;;;;;5065611;28;20516;-36
2022/09/06 11:35:23;;;;;;;1.55;1.20;;;25.80;90.60;;;;;;5067617;28;20123;-36
2022/09/06 11:38:22;;;;;;;1.42;1.30;;;25.90;90.50;;;;;;5066792;28;20032;-36
2022/09/06 11:41:01;;;;;;;3.22;1.67;;;25.90;90.30;;;;;;5063730;28;20097;-36
2022/09/06 11:43:46;;;;;;;1.30;1.20;;;26.00;90.20;;;;;;5066959;28;20024;-37
2022/09/06 11:46:34;;;;;;;2.22;1.60;;;26.10;90.20;;;;;;5066877;28;20655;-41
2022/09/06 11:49:09;;;;;;;1.60;1.50;;;26.10;89.90;;;;;;5057121;28;20035;-36
2022/09/06 11:51:36;;;;;;;1.90;1.63;;;26.20;90.00;;;;;;5066057;28;20055;-36
2022/09/06 11:54:14;;;;;;;2.50;1.60;;;26.30;89.90;;;;;;5065659;28;20048;-36
2022/09/06 11:56:45;;;;;;;2.70;1.60;;;26.40;89.60;;;;;;5066082;28;20024;-37
2022/09/06 11:59:17;;;;;;;2.35;1.40;;;26.50;89.40;;;;;;5056393;28;20028;-36
2022/09/06 12:01:58;;;;;;;4.13;2.20;;;26.50;89.10;;;;;;5065461;28;20112;-37
2022/09/06 12:05:03;;;;;;;2.75;1.80;;;26.60;88.50;;;;;;5055846;28;20134;-37
2022/09/06 12:08:07;;;;;;;2.33;2.05;;;26.70;88.60;;;;;;5065388;28;20112;-36
2022/09/06 12:10:39;;;;;;;1.77;1.50;;;26.70;88.30;;;;;;5066461;28;20392;-37
2022/09/06 12:13:42;;;;;;;1.50;1.40;;;26.80;88.30;;;;;;5066059;28;20404;-37
2022/09/06 12:16:10;;;;;;;2.22;1.50;;;26.80;88.30;;;;;;5045782;28;20774;-35
2022/09/06 12:18:47;;;;;;;2.40;1.65;;;26.90;88.00;;;;;;5061435;28;20075;-36
2022/09/06 12:21:33;;;;;;;1.98;1.55;;;26.90;87.90;;;;;;5054289;28;20039;-36
2022/09/06 12:23:59;;;;;;;2.30;1.73;;;27.00;87.70;;;;;;5065587;28;20147;-35
2022/09/06 12:26:45;;;;;;;2.03;1.58;;;26.90;86.90;;;;;;5066331;28;20100;-36
2022/09/06 12:29:11;;;;;;;1.80;1.30;;;26.90;87.20;;;;;;5065435;28;20036;-36
2022/09/06 12:31:51;;;;;;;2.80;1.20;;;26.80;87.20;;;;;;5066078;28;20099;-36
2022/09/06 12:34:21;;;;;;;2.65;1.42;;;26.90;87.40;;;;;;5066004;28;20031;-37
2022/09/06 12:36:54;;;;;;;1.98;1.40;;;26.90;87.40;;;;;;5064920;28;20013;-38
2022/09/06 12:39:22;;;;;;;1.55;1.45;;;27.00;87.40;;;;;;5065809;28;20046;-37
2022/09/06 12:42:14;;;;;;;2.03;1.52;;;27.00;87.20;;;;;;5065510;28;20111;-38
2022/09/06 12:44:46;;;;;;;1.70;1.48;;;27.00;87.20;;;;;;5062236;28;20060;-37
2022/09/06 12:47:14;;;;;;;2.67;2.10;;;27.00;87.30;;;;;;5065451;28;20135;-37
2022/09/06 12:49:40;;;;;;;4.03;2.17;;;27.00;87.10;;;;;;5062026;28;20035;-37
2022/09/06 12:52:15;;;;;;;1.92;1.73;;;27.00;87.10;;;;;;5064424;28;20021;-36
2022/09/06 12:54:43;;;;;;;2.30;1.63;;;26.90;87.10;;;;;;5063653;28;20583;-36
2022/09/06 12:57:27;;;;;;;2.17;1.67;;;26.90;87.20;;;;;;5063940;28;20028;-38
2022/09/06 12:59:53;;;;;;;1.58;1.48;;;26.90;87.20;;;;;;5064289;28;20040;-37
2022/09/06 13:02:27;;;;;;;2.05;1.70;;;27.00;87.20;;;;;;5064644;28;20127;-38
2022/09/06 13:05:01;;;;;;;3.15;1.80;;;26.90;86.80;;;;;;5063513;28;20123;-36
2022/09/06 13:07:28;;;;;;;1.98;1.70;;;26.90;86.60;;;;;;5064527;28;20555;-36
2022/09/06 13:09:56;;;;;;;1.80;1.45;;;26.90;87.00;;;;;;5064121;28;20024;-36